sensor_id;sensor_type;location;lat;lon;timestamp;P1;durP1;ratioP1;P2;durP2;ratioP2
20456;SDS011;10387;51.102;6.848;2023-10-19T00:00:35;13.83;;;11.10;;
20456;SDS011;10387;51.102;6.848;2023-10-19T00:03:02;14.57;;;10.83;;
20456;SDS011;10387;51.102;6.848;2023-10-19T00:05:29;13.87;;;11.53;;
20456;SDS011;10387;51.102;6.848;2023-10-19T00:07:57;15.20;;;11.73;;
20456;SDS011;10387;51.102;6.848;2023-10-19T00:10:23;15.83;;;12.43;;
20456;SDS011;10387;51.102;6.848;2023-10-19T00:12:51;13.17;;;11.80;;
20456;SDS011;10387;51.102;6.848;2023-10-19T00:15:37;14.47;;;12.07;;
20456;SDS011;10387;51.102;6.848;2023-10-19T00:18:12;16.33;;;12.50;;
20456;SDS011;10387;51.102;6.848;2023-10-19T00:20:42;15.53;;;11.57;;
20456;SDS011;10387;51.102;6.848;2023-10-19T00:23:14;14.33;;;11.57;;
20456;SDS011;10387;51.102;6.848;2023-10-19T00:25:49;13.83;;;12.07;;
20456;SDS011;10387;51.102;6.848;2023-10-19T00:28:19;16.23;;;12.27;;
20456;SDS011;10387;51.102;6.848;2023-10-19T00:30:45;15.93;;;12.10;;
20456;SDS011;10387;51.102;6.848;2023-10-19T00:33:14;16.80;;;13.07;;
20456;SDS011;10387;51.102;6.848;2023-10-19T00:35:45;16.50;;;12.17;;
20456;SDS011;10387;51.102;6.848;2023-10-19T00:38:15;14.70;;;13.07;;
20456;SDS011;10387;51.102;6.848;2023-10-19T00:41:00;17.90;;;13.83;;
20456;SDS011;10387;51.102;6.848;2023-10-19T00:43:36;15.20;;;12.80;;
20456;SDS011;10387;51.102;6.848;2023-10-19T00:46:11;16.53;;;12.83;;
20456;SDS011;10387;51.102;6.848;2023-10-19T00:48:49;17.17;;;13.60;;
20456;SDS011;10387;51.102;6.848;2023-10-19T00:51:18;18.33;;;13.73;;
20456;SDS011;10387;51.102;6.848;2023-10-19T00:53:54;15.27;;;13.10;;
20456;SDS011;10387;51.102;6.848;2023-10-19T00:56:22;17.17;;;13.07;;
20456;SDS011;10387;51.102;6.848;2023-10-19T00:58:51;18.27;;;13.87;;
20456;SDS011;10387;51.102;6.848;2023-10-19T01:01:26;14.33;;;12.77;;
20456;SDS011;10387;51.102;6.848;2023-10-19T01:03:54;15.80;;;12.73;;
20456;SDS011;10387;51.102;6.848;2023-10-19T01:06:24;17.60;;;12.87;;
20456;SDS011;10387;51.102;6.848;2023-10-19T01:08:52;16.47;;;13.30;;
20456;SDS011;10387;51.102;6.848;2023-10-19T01:11:20;15.53;;;13.00;;
20456;SDS011;10387;51.102;6.848;2023-10-19T01:13:47;14.10;;;12.30;;
20456;SDS011;10387;51.102;6.848;2023-10-19T01:16:14;15.60;;;13.20;;
20456;SDS011;10387;51.102;6.848;2023-10-19T01:18:50;16.50;;;12.67;;
20456;SDS011;10387;51.102;6.848;2023-10-19T01:21:24;16.00;;;12.80;;
20456;SDS011;10387;51.102;6.848;2023-10-19T01:24:11;15.43;;;12.83;;
20456;SDS011;10387;51.102;6.848;2023-10-19T01:26:42;15.40;;;12.77;;
20456;SDS011;10387;51.102;6.848;2023-10-19T01:29:08;16.43;;;13.10;;
20456;SDS011;10387;51.102;6.848;2023-10-19T01:31:51;16.77;;;14.33;;
20456;SDS011;10387;51.102;6.848;2023-10-19T01:34:31;15.80;;;13.27;;
20456;SDS011;10387;51.102;6.848;2023-10-19T01:37:07;16.27;;;13.00;;
20456;SDS011;10387;51.102;6.848;2023-10-19T01:42:58;17.10;;;13.37;;
20456;SDS011;10387;51.102;6.848;2023-10-19T01:45:36;16.90;;;13.07;;
20456;SDS011;10387;51.102;6.848;2023-10-19T01:48:04;16.40;;;13.40;;
20456;SDS011;10387;51.102;6.848;2023-10-19T01:50:34;17.63;;;13.33;;
20456;SDS011;10387;51.102;6.848;2023-10-19T01:53:04;15.67;;;13.10;;
20456;SDS011;10387;51.102;6.848;2023-10-19T01:55:38;16.87;;;13.57;;
20456;SDS011;10387;51.102;6.848;2023-10-19T01:58:04;15.50;;;12.73;;
20456;SDS011;10387;51.102;6.848;2023-10-19T02:00:30;18.40;;;13.97;;
20456;SDS011;10387;51.102;6.848;2023-10-19T02:02:57;17.67;;;13.07;;
20456;SDS011;10387;51.102;6.848;2023-10-19T02:05:24;16.17;;;13.57;;
20456;SDS011;10387;51.102;6.848;2023-10-19T02:08:01;17.37;;;14.50;;
20456;SDS011;10387;51.102;6.848;2023-10-19T02:10:29;16.20;;;13.27;;
20456;SDS011;10387;51.102;6.848;2023-10-19T02:13:01;16.63;;;13.27;;
20456;SDS011;10387;51.102;6.848;2023-10-19T02:15:33;19.20;;;15.00;;
20456;SDS011;10387;51.102;6.848;2023-10-19T02:18:02;16.53;;;13.33;;
20456;SDS011;10387;51.102;6.848;2023-10-19T02:20:34;17.87;;;14.67;;
20456;SDS011;10387;51.102;6.848;2023-10-19T02:23:05;17.97;;;14.07;;
20456;SDS011;10387;51.102;6.848;2023-10-19T02:25:35;16.63;;;13.10;;
20456;SDS011;10387;51.102;6.848;2023-10-19T02:28:05;16.93;;;14.03;;
20456;SDS011;10387;51.102;6.848;2023-10-19T02:30:34;16.93;;;14.20;;
20456;SDS011;10387;51.102;6.848;2023-10-19T02:33:09;17.83;;;14.03;;
20456;SDS011;10387;51.102;6.848;2023-10-19T02:35:40;16.63;;;14.43;;
20456;SDS011;10387;51.102;6.848;2023-10-19T02:38:06;17.60;;;14.23;;
20456;SDS011;10387;51.102;6.848;2023-10-19T02:40:33;17.43;;;14.23;;
20456;SDS011;10387;51.102;6.848;2023-10-19T02:42:59;14.77;;;13.13;;
20456;SDS011;10387;51.102;6.848;2023-10-19T02:45:28;16.43;;;13.17;;
20456;SDS011;10387;51.102;6.848;2023-10-19T02:47:57;18.00;;;13.67;;
20456;SDS011;10387;51.102;6.848;2023-10-19T02:50:29;18.03;;;14.43;;
20456;SDS011;10387;51.102;6.848;2023-10-19T02:52:58;16.27;;;14.00;;
20456;SDS011;10387;51.102;6.848;2023-10-19T02:55:24;16.90;;;13.53;;
20456;SDS011;10387;51.102;6.848;2023-10-19T02:57:53;16.23;;;13.13;;
20456;SDS011;10387;51.102;6.848;2023-10-19T03:00:32;18.67;;;13.80;;
20456;SDS011;10387;51.102;6.848;2023-10-19T03:03:02;16.00;;;13.67;;
20456;SDS011;10387;51.102;6.848;2023-10-19T03:05:31;15.77;;;11.90;;
20456;SDS011;10387;51.102;6.848;2023-10-19T03:08:00;16.57;;;13.47;;
20456;SDS011;10387;51.102;6.848;2023-10-19T03:10:31;14.73;;;13.17;;
20456;SDS011;10387;51.102;6.848;2023-10-19T03:13:07;18.00;;;13.00;;
20456;SDS011;10387;51.102;6.848;2023-10-19T03:15:36;16.33;;;13.03;;
20456;SDS011;10387;51.102;6.848;2023-10-19T03:18:07;15.33;;;13.23;;
20456;SDS011;10387;51.102;6.848;2023-10-19T03:20:37;15.93;;;12.70;;
20456;SDS011;10387;51.102;6.848;2023-10-19T03:23:03;16.57;;;13.37;;
20456;SDS011;10387;51.102;6.848;2023-10-19T03:25:33;17.47;;;13.43;;
20456;SDS011;10387;51.102;6.848;2023-10-19T03:28:18;15.73;;;12.97;;
20456;SDS011;10387;51.102;6.848;2023-10-19T03:30:44;15.60;;;13.00;;
20456;SDS011;10387;51.102;6.848;2023-10-19T03:33:12;16.50;;;13.53;;
20456;SDS011;10387;51.102;6.848;2023-10-19T03:35:38;14.33;;;12.53;;
20456;SDS011;10387;51.102;6.848;2023-10-19T03:38:07;14.97;;;12.23;;
20456;SDS011;10387;51.102;6.848;2023-10-19T03:40:40;14.27;;;12.63;;
20456;SDS011;10387;51.102;6.848;2023-10-19T03:43:06;16.63;;;12.60;;
20456;SDS011;10387;51.102;6.848;2023-10-19T03:45:47;15.37;;;12.17;;
20456;SDS011;10387;51.102;6.848;2023-10-19T03:48:20;14.83;;;11.57;;
20456;SDS011;10387;51.102;6.848;2023-10-19T03:50:59;13.43;;;11.27;;
20456;SDS011;10387;51.102;6.848;2023-10-19T03:53:27;14.53;;;11.70;;
20456;SDS011;10387;51.102;6.848;2023-10-19T03:55:54;14.20;;;11.10;;
20456;SDS011;10387;51.102;6.848;2023-10-19T03:58:21;15.10;;;11.73;;
20456;SDS011;10387;51.102;6.848;2023-10-19T04:00:48;15.83;;;12.07;;
20456;SDS011;10387;51.102;6.848;2023-10-19T04:03:17;13.37;;;11.63;;
20456;SDS011;10387;51.102;6.848;2023-10-19T04:05:43;13.40;;;11.63;;
20456;SDS011;10387;51.102;6.848;2023-10-19T04:08:14;12.37;;;10.97;;
20456;SDS011;10387;51.102;6.848;2023-10-19T04:10:45;13.07;;;11.17;;
20456;SDS011;10387;51.102;6.848;2023-10-19T04:13:31;13.13;;;11.57;;
20456;SDS011;10387;51.102;6.848;2023-10-19T04:15:57;13.40;;;11.93;;
20456;SDS011;10387;51.102;6.848;2023-10-19T04:18:26;15.50;;;11.73;;
20456;SDS011;10387;51.102;6.848;2023-10-19T04:20:52;14.13;;;12.10;;
20456;SDS011;10387;51.102;6.848;2023-10-19T04:23:18;12.53;;;11.23;;
20456;SDS011;10387;51.102;6.848;2023-10-19T04:25:46;12.83;;;10.53;;
20456;SDS011;10387;51.102;6.848;2023-10-19T04:28:12;12.83;;;11.07;;
20456;SDS011;10387;51.102;6.848;2023-10-19T04:30:39;13.23;;;10.20;;
20456;SDS011;10387;51.102;6.848;2023-10-19T04:33:05;13.13;;;9.90;;
20456;SDS011;10387;51.102;6.848;2023-10-19T04:35:35;12.10;;;10.17;;
20456;SDS011;10387;51.102;6.848;2023-10-19T04:38:06;11.67;;;9.87;;
20456;SDS011;10387;51.102;6.848;2023-10-19T04:40:32;11.00;;;9.77;;
20456;SDS011;10387;51.102;6.848;2023-10-19T04:42:58;11.20;;;9.27;;
20456;SDS011;10387;51.102;6.848;2023-10-19T04:45:25;11.40;;;9.47;;
20456;SDS011;10387;51.102;6.848;2023-10-19T04:47:51;10.40;;;9.10;;
20456;SDS011;10387;51.102;6.848;2023-10-19T04:50:17;11.90;;;9.70;;
20456;SDS011;10387;51.102;6.848;2023-10-19T04:52:44;12.60;;;10.03;;
20456;SDS011;10387;51.102;6.848;2023-10-19T04:55:10;12.60;;;9.13;;
20456;SDS011;10387;51.102;6.848;2023-10-19T04:57:36;10.53;;;9.30;;
20456;SDS011;10387;51.102;6.848;2023-10-19T05:00:02;12.50;;;9.70;;
20456;SDS011;10387;51.102;6.848;2023-10-19T05:02:28;12.10;;;9.10;;
20456;SDS011;10387;51.102;6.848;2023-10-19T05:04:55;11.27;;;9.80;;
20456;SDS011;10387;51.102;6.848;2023-10-19T05:07:21;12.67;;;9.30;;
20456;SDS011;10387;51.102;6.848;2023-10-19T05:09:49;11.07;;;8.73;;
20456;SDS011;10387;51.102;6.848;2023-10-19T05:12:18;10.90;;;9.03;;
20456;SDS011;10387;51.102;6.848;2023-10-19T05:14:45;10.57;;;8.43;;
20456;SDS011;10387;51.102;6.848;2023-10-19T05:17:11;9.13;;;8.07;;
20456;SDS011;10387;51.102;6.848;2023-10-19T05:19:38;9.93;;;8.10;;
20456;SDS011;10387;51.102;6.848;2023-10-19T05:22:08;9.77;;;8.77;;
20456;SDS011;10387;51.102;6.848;2023-10-19T05:24:36;9.97;;;8.97;;
20456;SDS011;10387;51.102;6.848;2023-10-19T05:27:05;10.73;;;8.87;;
20456;SDS011;10387;51.102;6.848;2023-10-19T05:29:32;11.00;;;8.37;;
20456;SDS011;10387;51.102;6.848;2023-10-19T05:31:59;9.27;;;8.37;;
20456;SDS011;10387;51.102;6.848;2023-10-19T05:34:30;8.47;;;7.53;;
20456;SDS011;10387;51.102;6.848;2023-10-19T05:37:01;9.67;;;8.70;;
20456;SDS011;10387;51.102;6.848;2023-10-19T05:39:30;9.50;;;8.13;;
20456;SDS011;10387;51.102;6.848;2023-10-19T05:41:57;11.70;;;8.17;;
20456;SDS011;10387;51.102;6.848;2023-10-19T05:44:27;9.53;;;8.13;;
20456;SDS011;10387;51.102;6.848;2023-10-19T05:46:53;10.83;;;8.17;;
20456;SDS011;10387;51.102;6.848;2023-10-19T05:49:20;10.53;;;8.57;;
20456;SDS011;10387;51.102;6.848;2023-10-19T05:51:46;9.33;;;8.43;;
20456;SDS011;10387;51.102;6.848;2023-10-19T05:54:12;10.70;;;8.13;;
20456;SDS011;10387;51.102;6.848;2023-10-19T05:56:38;9.77;;;8.07;;
20456;SDS011;10387;51.102;6.848;2023-10-19T05:59:04;8.77;;;7.83;;
20456;SDS011;10387;51.102;6.848;2023-10-19T06:01:32;10.07;;;8.37;;
20456;SDS011;10387;51.102;6.848;2023-10-19T06:03:58;8.97;;;7.60;;
20456;SDS011;10387;51.102;6.848;2023-10-19T06:06:29;11.03;;;8.30;;
20456;SDS011;10387;51.102;6.848;2023-10-19T06:09:07;9.10;;;7.23;;
20456;SDS011;10387;51.102;6.848;2023-10-19T06:11:38;10.07;;;7.87;;
20456;SDS011;10387;51.102;6.848;2023-10-19T06:14:24;8.47;;;7.57;;
20456;SDS011;10387;51.102;6.848;2023-10-19T06:16:57;9.17;;;8.27;;
20456;SDS011;10387;51.102;6.848;2023-10-19T06:19:28;8.83;;;7.83;;
20456;SDS011;10387;51.102;6.848;2023-10-19T06:22:00;12.37;;;8.57;;
20456;SDS011;10387;51.102;6.848;2023-10-19T06:24:27;9.93;;;8.23;;
20456;SDS011;10387;51.102;6.848;2023-10-19T06:27:00;9.27;;;8.27;;
20456;SDS011;10387;51.102;6.848;2023-10-19T06:29:27;8.40;;;7.50;;
20456;SDS011;10387;51.102;6.848;2023-10-19T06:32:03;10.63;;;8.70;;
20456;SDS011;10387;51.102;6.848;2023-10-19T06:34:29;10.60;;;8.60;;
20456;SDS011;10387;51.102;6.848;2023-10-19T06:37:00;9.97;;;8.73;;
20456;SDS011;10387;51.102;6.848;2023-10-19T06:39:32;10.37;;;8.97;;
20456;SDS011;10387;51.102;6.848;2023-10-19T06:42:10;12.53;;;9.30;;
20456;SDS011;10387;51.102;6.848;2023-10-19T06:44:44;11.17;;;8.80;;
20456;SDS011;10387;51.102;6.848;2023-10-19T06:47:25;11.57;;;9.93;;
20456;SDS011;10387;51.102;6.848;2023-10-19T06:49:55;10.23;;;9.10;;
20456;SDS011;10387;51.102;6.848;2023-10-19T06:52:21;11.33;;;9.23;;
20456;SDS011;10387;51.102;6.848;2023-10-19T06:54:48;10.03;;;9.03;;
20456;SDS011;10387;51.102;6.848;2023-10-19T06:57:19;11.63;;;9.40;;
20456;SDS011;10387;51.102;6.848;2023-10-19T06:59:59;11.47;;;9.17;;
20456;SDS011;10387;51.102;6.848;2023-10-19T07:02:38;10.70;;;9.37;;
20456;SDS011;10387;51.102;6.848;2023-10-19T07:05:13;10.57;;;9.57;;
20456;SDS011;10387;51.102;6.848;2023-10-19T07:07:52;12.03;;;9.90;;
20456;SDS011;10387;51.102;6.848;2023-10-19T07:10:24;11.50;;;9.77;;
20456;SDS011;10387;51.102;6.848;2023-10-19T07:13:01;12.87;;;10.37;;
20456;SDS011;10387;51.102;6.848;2023-10-19T07:15:34;11.63;;;10.20;;
20456;SDS011;10387;51.102;6.848;2023-10-19T07:18:11;10.60;;;9.10;;
20456;SDS011;10387;51.102;6.848;2023-10-19T07:20:38;11.97;;;9.90;;
20456;SDS011;10387;51.102;6.848;2023-10-19T07:23:13;11.20;;;9.00;;
20456;SDS011;10387;51.102;6.848;2023-10-19T07:25:54;10.73;;;9.60;;
20456;SDS011;10387;51.102;6.848;2023-10-19T07:28:31;10.77;;;9.60;;
20456;SDS011;10387;51.102;6.848;2023-10-19T07:30:58;13.67;;;10.23;;
20456;SDS011;10387;51.102;6.848;2023-10-19T07:33:28;11.57;;;9.77;;
20456;SDS011;10387;51.102;6.848;2023-10-19T07:35:54;31.73;;;28.33;;
20456;SDS011;10387;51.102;6.848;2023-10-19T07:38:23;12.47;;;10.30;;
20456;SDS011;10387;51.102;6.848;2023-10-19T07:40:50;11.97;;;9.90;;
20456;SDS011;10387;51.102;6.848;2023-10-19T07:43:20;12.40;;;9.97;;
20456;SDS011;10387;51.102;6.848;2023-10-19T07:45:49;10.67;;;9.57;;
20456;SDS011;10387;51.102;6.848;2023-10-19T07:48:19;11.97;;;10.10;;
20456;SDS011;10387;51.102;6.848;2023-10-19T07:50:50;10.27;;;8.87;;
20456;SDS011;10387;51.102;6.848;2023-10-19T07:53:22;10.77;;;9.57;;
20456;SDS011;10387;51.102;6.848;2023-10-19T07:55:49;10.00;;;8.57;;
20456;SDS011;10387;51.102;6.848;2023-10-19T07:58:16;12.23;;;9.17;;
20456;SDS011;10387;51.102;6.848;2023-10-19T08:00:42;11.50;;;9.50;;
20456;SDS011;10387;51.102;6.848;2023-10-19T08:03:16;10.57;;;9.47;;
20456;SDS011;10387;51.102;6.848;2023-10-19T08:05:42;11.83;;;10.03;;
20456;SDS011;10387;51.102;6.848;2023-10-19T08:08:14;12.77;;;10.00;;
20456;SDS011;10387;51.102;6.848;2023-10-19T08:10:43;11.73;;;9.77;;
20456;SDS011;10387;51.102;6.848;2023-10-19T08:13:15;12.53;;;11.27;;
20456;SDS011;10387;51.102;6.848;2023-10-19T08:15:52;11.83;;;10.63;;
20456;SDS011;10387;51.102;6.848;2023-10-19T08:18:18;11.67;;;9.90;;
20456;SDS011;10387;51.102;6.848;2023-10-19T08:20:45;12.23;;;10.00;;
20456;SDS011;10387;51.102;6.848;2023-10-19T08:23:12;11.23;;;10.07;;
20456;SDS011;10387;51.102;6.848;2023-10-19T08:25:48;12.53;;;10.27;;
20456;SDS011;10387;51.102;6.848;2023-10-19T08:28:19;13.33;;;10.53;;
20456;SDS011;10387;51.102;6.848;2023-10-19T08:30:45;11.67;;;10.20;;
20456;SDS011;10387;51.102;6.848;2023-10-19T08:33:25;13.23;;;10.43;;
20456;SDS011;10387;51.102;6.848;2023-10-19T08:35:57;12.13;;;10.37;;
20456;SDS011;10387;51.102;6.848;2023-10-19T08:38:25;13.67;;;10.57;;
20456;SDS011;10387;51.102;6.848;2023-10-19T08:40:51;11.20;;;9.47;;
20456;SDS011;10387;51.102;6.848;2023-10-19T08:43:18;11.50;;;9.83;;
20456;SDS011;10387;51.102;6.848;2023-10-19T08:45:46;12.23;;;9.03;;
20456;SDS011;10387;51.102;6.848;2023-10-19T08:48:14;11.40;;;9.20;;
20456;SDS011;10387;51.102;6.848;2023-10-19T08:50:40;12.30;;;9.47;;
20456;SDS011;10387;51.102;6.848;2023-10-19T08:53:07;10.70;;;9.43;;
20456;SDS011;10387;51.102;6.848;2023-10-19T08:55:33;12.30;;;8.87;;
20456;SDS011;10387;51.102;6.848;2023-10-19T08:57:59;10.00;;;7.77;;
20456;SDS011;10387;51.102;6.848;2023-10-19T09:00:26;10.03;;;8.40;;
20456;SDS011;10387;51.102;6.848;2023-10-19T09:02:53;8.60;;;7.63;;
20456;SDS011;10387;51.102;6.848;2023-10-19T09:05:19;8.23;;;7.03;;
20456;SDS011;10387;51.102;6.848;2023-10-19T09:07:50;8.80;;;7.33;;
20456;SDS011;10387;51.102;6.848;2023-10-19T09:10:26;7.73;;;6.80;;
20456;SDS011;10387;51.102;6.848;2023-10-19T09:13:00;9.50;;;6.60;;
20456;SDS011;10387;51.102;6.848;2023-10-19T09:15:27;9.40;;;6.40;;
20456;SDS011;10387;51.102;6.848;2023-10-19T09:17:56;7.77;;;6.30;;
20456;SDS011;10387;51.102;6.848;2023-10-19T09:20:22;8.67;;;6.67;;
20456;SDS011;10387;51.102;6.848;2023-10-19T09:22:54;9.30;;;6.67;;
20456;SDS011;10387;51.102;6.848;2023-10-19T09:25:21;10.73;;;6.20;;
20456;SDS011;10387;51.102;6.848;2023-10-19T09:27:48;7.67;;;5.80;;
20456;SDS011;10387;51.102;6.848;2023-10-19T09:30:16;6.23;;;5.63;;
20456;SDS011;10387;51.102;6.848;2023-10-19T09:32:46;6.67;;;5.30;;
20456;SDS011;10387;51.102;6.848;2023-10-19T09:35:13;5.70;;;5.10;;
20456;SDS011;10387;51.102;6.848;2023-10-19T09:37:41;9.50;;;5.57;;
20456;SDS011;10387;51.102;6.848;2023-10-19T09:40:08;8.73;;;5.47;;
20456;SDS011;10387;51.102;6.848;2023-10-19T09:42:43;8.67;;;5.83;;
20456;SDS011;10387;51.102;6.848;2023-10-19T09:45:13;6.70;;;5.63;;
20456;SDS011;10387;51.102;6.848;2023-10-19T09:47:42;10.53;;;5.80;;
20456;SDS011;10387;51.102;6.848;2023-10-19T09:50:12;9.10;;;5.80;;
20456;SDS011;10387;51.102;6.848;2023-10-19T09:52:40;8.10;;;5.60;;
20456;SDS011;10387;51.102;6.848;2023-10-19T09:57:35;7.60;;;5.13;;
20456;SDS011;10387;51.102;6.848;2023-10-19T10:00:03;8.07;;;4.00;;
20456;SDS011;10387;51.102;6.848;2023-10-19T10:02:39;6.33;;;4.07;;
20456;SDS011;10387;51.102;6.848;2023-10-19T10:05:44;6.33;;;3.43;;
20456;SDS011;10387;51.102;6.848;2023-10-19T10:10:37;6.70;;;2.93;;
20456;SDS011;10387;51.102;6.848;2023-10-19T10:15:49;4.87;;;3.23;;
20456;SDS011;10387;51.102;6.848;2023-10-19T10:18:15;7.37;;;3.60;;
20456;SDS011;10387;51.102;6.848;2023-10-19T10:20:41;6.33;;;3.10;;
20456;SDS011;10387;51.102;6.848;2023-10-19T10:23:20;6.77;;;3.23;;
20456;SDS011;10387;51.102;6.848;2023-10-19T10:25:46;7.13;;;2.83;;
20456;SDS011;10387;51.102;6.848;2023-10-19T10:28:19;5.77;;;3.20;;
20456;SDS011;10387;51.102;6.848;2023-10-19T10:40:10;6.83;;;3.03;;
20456;SDS011;10387;51.102;6.848;2023-10-19T10:42:58;5.70;;;2.60;;
20456;SDS011;10387;51.102;6.848;2023-10-19T10:45:35;7.53;;;2.90;;
20456;SDS011;10387;51.102;6.848;2023-10-19T10:48:06;3.60;;;2.27;;
20456;SDS011;10387;51.102;6.848;2023-10-19T10:50:42;4.80;;;2.30;;
20456;SDS011;10387;51.102;6.848;2023-10-19T10:53:12;5.77;;;2.33;;
20456;SDS011;10387;51.102;6.848;2023-10-19T10:55:43;7.20;;;2.30;;
20456;SDS011;10387;51.102;6.848;2023-10-19T10:58:19;5.27;;;2.50;;
20456;SDS011;10387;51.102;6.848;2023-10-19T11:00:48;3.80;;;2.10;;
20456;SDS011;10387;51.102;6.848;2023-10-19T11:03:24;5.20;;;2.70;;
20456;SDS011;10387;51.102;6.848;2023-10-19T11:06:06;3.80;;;2.20;;
20456;SDS011;10387;51.102;6.848;2023-10-19T11:08:43;2.97;;;1.77;;
20456;SDS011;10387;51.102;6.848;2023-10-19T11:11:10;4.97;;;2.27;;
20456;SDS011;10387;51.102;6.848;2023-10-19T11:13:41;5.17;;;2.57;;
20456;SDS011;10387;51.102;6.848;2023-10-19T11:16:21;5.43;;;2.47;;
20456;SDS011;10387;51.102;6.848;2023-10-19T11:18:50;6.17;;;2.53;;
20456;SDS011;10387;51.102;6.848;2023-10-19T11:21:16;7.60;;;2.27;;
20456;SDS011;10387;51.102;6.848;2023-10-19T11:23:48;6.73;;;2.47;;
20456;SDS011;10387;51.102;6.848;2023-10-19T11:26:21;3.90;;;2.40;;
20456;SDS011;10387;51.102;6.848;2023-10-19T11:28:59;6.83;;;2.60;;
20456;SDS011;10387;51.102;6.848;2023-10-19T11:31:28;5.97;;;2.80;;
20456;SDS011;10387;51.102;6.848;2023-10-19T11:34:03;5.40;;;2.70;;
20456;SDS011;10387;51.102;6.848;2023-10-19T11:36:30;4.07;;;2.70;;
20456;SDS011;10387;51.102;6.848;2023-10-19T11:38:56;4.13;;;2.90;;
20456;SDS011;10387;51.102;6.848;2023-10-19T11:41:22;4.33;;;2.33;;
20456;SDS011;10387;51.102;6.848;2023-10-19T11:43:50;5.80;;;2.60;;
20456;SDS011;10387;51.102;6.848;2023-10-19T11:46:16;6.87;;;2.60;;
20456;SDS011;10387;51.102;6.848;2023-10-19T11:48:50;7.33;;;3.10;;
20456;SDS011;10387;51.102;6.848;2023-10-19T11:51:16;5.07;;;2.73;;
20456;SDS011;10387;51.102;6.848;2023-10-19T11:53:42;6.93;;;3.17;;
20456;SDS011;10387;51.102;6.848;2023-10-19T11:56:10;5.03;;;2.87;;
20456;SDS011;10387;51.102;6.848;2023-10-19T11:58:40;6.50;;;2.80;;
20456;SDS011;10387;51.102;6.848;2023-10-19T12:01:09;4.47;;;2.60;;
20456;SDS011;10387;51.102;6.848;2023-10-19T12:03:37;5.27;;;2.67;;
20456;SDS011;10387;51.102;6.848;2023-10-19T12:06:08;5.63;;;2.90;;
20456;SDS011;10387;51.102;6.848;2023-10-19T12:08:35;8.00;;;3.20;;
20456;SDS011;10387;51.102;6.848;2023-10-19T12:11:02;6.97;;;3.10;;
20456;SDS011;10387;51.102;6.848;2023-10-19T12:13:29;6.37;;;2.87;;
20456;SDS011;10387;51.102;6.848;2023-10-19T12:15:58;4.47;;;2.70;;
20456;SDS011;10387;51.102;6.848;2023-10-19T12:18:25;6.83;;;2.93;;
20456;SDS011;10387;51.102;6.848;2023-10-19T12:20:56;6.10;;;2.60;;
20456;SDS011;10387;51.102;6.848;2023-10-19T12:23:25;5.07;;;2.60;;
20456;SDS011;10387;51.102;6.848;2023-10-19T12:25:54;4.80;;;2.70;;
20456;SDS011;10387;51.102;6.848;2023-10-19T12:28:26;4.87;;;2.67;;
20456;SDS011;10387;51.102;6.848;2023-10-19T12:30:52;5.53;;;2.70;;
20456;SDS011;10387;51.102;6.848;2023-10-19T12:33:18;7.70;;;2.77;;
20456;SDS011;10387;51.102;6.848;2023-10-19T12:35:45;7.03;;;3.17;;
20456;SDS011;10387;51.102;6.848;2023-10-19T12:38:19;7.43;;;2.40;;
20456;SDS011;10387;51.102;6.848;2023-10-19T12:40:49;6.20;;;3.40;;
20456;SDS011;10387;51.102;6.848;2023-10-19T12:43:20;4.93;;;2.30;;
20456;SDS011;10387;51.102;6.848;2023-10-19T12:45:50;6.00;;;2.90;;
20456;SDS011;10387;51.102;6.848;2023-10-19T12:48:20;6.77;;;3.10;;
20456;SDS011;10387;51.102;6.848;2023-10-19T12:50:47;6.23;;;3.17;;
20456;SDS011;10387;51.102;6.848;2023-10-19T12:53:13;5.67;;;2.57;;
20456;SDS011;10387;51.102;6.848;2023-10-19T12:55:39;4.57;;;2.60;;
20456;SDS011;10387;51.102;6.848;2023-10-19T12:58:08;7.00;;;2.93;;
20456;SDS011;10387;51.102;6.848;2023-10-19T13:00:35;4.23;;;2.80;;
20456;SDS011;10387;51.102;6.848;2023-10-19T13:03:06;7.57;;;2.80;;
20456;SDS011;10387;51.102;6.848;2023-10-19T13:05:33;5.90;;;2.77;;
20456;SDS011;10387;51.102;6.848;2023-10-19T13:07:59;5.90;;;3.20;;
20456;SDS011;10387;51.102;6.848;2023-10-19T13:10:29;6.33;;;3.10;;
20456;SDS011;10387;51.102;6.848;2023-10-19T13:13:03;7.57;;;3.07;;
20456;SDS011;10387;51.102;6.848;2023-10-19T13:15:33;8.40;;;2.80;;
20456;SDS011;10387;51.102;6.848;2023-10-19T13:18:04;5.83;;;2.90;;
20456;SDS011;10387;51.102;6.848;2023-10-19T13:20:34;6.03;;;3.00;;
20456;SDS011;10387;51.102;6.848;2023-10-19T13:23:01;3.93;;;2.80;;
20456;SDS011;10387;51.102;6.848;2023-10-19T13:25:32;3.63;;;2.57;;
20456;SDS011;10387;51.102;6.848;2023-10-19T13:28:12;6.27;;;3.03;;
20456;SDS011;10387;51.102;6.848;2023-10-19T13:30:39;6.23;;;2.90;;
20456;SDS011;10387;51.102;6.848;2023-10-19T13:33:09;3.83;;;2.40;;
20456;SDS011;10387;51.102;6.848;2023-10-19T13:35:37;4.27;;;2.60;;
20456;SDS011;10387;51.102;6.848;2023-10-19T13:38:07;5.33;;;3.50;;
20456;SDS011;10387;51.102;6.848;2023-10-19T13:40:33;5.53;;;2.73;;
20456;SDS011;10387;51.102;6.848;2023-10-19T13:43:00;4.97;;;2.70;;
20456;SDS011;10387;51.102;6.848;2023-10-19T13:45:26;6.63;;;2.70;;
20456;SDS011;10387;51.102;6.848;2023-10-19T13:47:52;6.13;;;2.87;;
20456;SDS011;10387;51.102;6.848;2023-10-19T13:50:23;5.30;;;3.13;;
20456;SDS011;10387;51.102;6.848;2023-10-19T13:52:59;5.37;;;2.90;;
20456;SDS011;10387;51.102;6.848;2023-10-19T13:55:27;8.47;;;3.47;;
20456;SDS011;10387;51.102;6.848;2023-10-19T13:57:54;5.67;;;3.40;;
20456;SDS011;10387;51.102;6.848;2023-10-19T14:00:21;6.00;;;3.33;;
20456;SDS011;10387;51.102;6.848;2023-10-19T14:03:07;7.93;;;3.60;;
20456;SDS011;10387;51.102;6.848;2023-10-19T14:05:39;7.20;;;3.20;;
20456;SDS011;10387;51.102;6.848;2023-10-19T14:08:16;10.53;;;3.80;;
20456;SDS011;10387;51.102;6.848;2023-10-19T14:10:48;6.33;;;3.63;;
20456;SDS011;10387;51.102;6.848;2023-10-19T14:13:19;9.80;;;4.03;;
20456;SDS011;10387;51.102;6.848;2023-10-19T14:15:53;8.97;;;4.30;;
20456;SDS011;10387;51.102;6.848;2023-10-19T14:18:48;7.47;;;3.87;;
20456;SDS011;10387;51.102;6.848;2023-10-19T14:21:20;8.07;;;4.20;;
20456;SDS011;10387;51.102;6.848;2023-10-19T14:23:53;7.03;;;4.10;;
20456;SDS011;10387;51.102;6.848;2023-10-19T14:26:33;7.47;;;4.10;;
20456;SDS011;10387;51.102;6.848;2023-10-19T14:29:07;7.07;;;4.00;;
20456;SDS011;10387;51.102;6.848;2023-10-19T14:32:05;7.40;;;4.27;;
20456;SDS011;10387;51.102;6.848;2023-10-19T14:34:42;8.13;;;4.40;;
20456;SDS011;10387;51.102;6.848;2023-10-19T14:37:21;8.80;;;4.20;;
20456;SDS011;10387;51.102;6.848;2023-10-19T14:39:57;7.60;;;4.63;;
20456;SDS011;10387;51.102;6.848;2023-10-19T14:42:26;6.50;;;4.20;;
20456;SDS011;10387;51.102;6.848;2023-10-19T14:45:04;7.53;;;4.37;;
20456;SDS011;10387;51.102;6.848;2023-10-19T14:47:34;6.07;;;4.40;;
20456;SDS011;10387;51.102;6.848;2023-10-19T14:50:23;6.33;;;4.50;;
20456;SDS011;10387;51.102;6.848;2023-10-19T14:52:53;5.80;;;4.10;;
20456;SDS011;10387;51.102;6.848;2023-10-19T14:55:26;6.53;;;4.27;;
20456;SDS011;10387;51.102;6.848;2023-10-19T14:58:03;10.40;;;4.97;;
20456;SDS011;10387;51.102;6.848;2023-10-19T15:00:37;6.63;;;4.30;;
20456;SDS011;10387;51.102;6.848;2023-10-19T15:03:36;7.63;;;4.80;;
20456;SDS011;10387;51.102;6.848;2023-10-19T15:06:10;7.57;;;4.77;;
20456;SDS011;10387;51.102;6.848;2023-10-19T15:08:40;7.37;;;4.73;;
20456;SDS011;10387;51.102;6.848;2023-10-19T15:11:21;9.40;;;4.70;;
20456;SDS011;10387;51.102;6.848;2023-10-19T15:13:48;7.83;;;4.77;;
20456;SDS011;10387;51.102;6.848;2023-10-19T15:16:25;8.40;;;5.20;;